Current | Forecast
Updated: 7:00 PM +05 on June 19, 2018
Observed at Chelyabinsk, Russia
Temperature 70°F
Humidity 60%
Dew Point 55°F
Wind West at 9 mph
Pressure 29.62 in (Steady)
Conditions Scattered Clouds
Visibility 6.2 miles
UV 1 out of 16
Clouds Scattered Clouds (SCT) : 3000 ft
Yesterday's Maximum 68°F
Yesterday's Minimum 45°F approx.
Yesterday's Heating Degree Days 9 approx.
Sunrise4:03 AM +05
Sunset9:42 PM +05
Moon Rise11:04 AM +05
Moon Set12:49 AM +05
Moon PhaseMoon Phase
Waxing Crescent
Raw METARMETAR USCC 191400Z 26004MPS 9999 SCT030CB 21/13 Q1003 R27/000060 NOSIG RMK QFE732


Monday
. High: 69° F.
Tuesday
. High: 75° F.
Wednesday
. High: 75° F.
Thursday
. High: 55° F.
Friday
. High: 51° F.
Saturday
. High: 59° F.
Sunday
. High: 50° F.
Monday
. High: 57° F.

Units: English | Metric

Find the Weather for any City, State or Zipcode, or Country:

U.S. State List | Severe Weather | Tropical Storms | Ski Conditions
United States | Canada | Central America | South America | Asia | Europe | Australia | Africa | Islands

Weather Underground

© Copyright 2018
The Weather Company, LLC